• Join FlightAware (Why Join?)
  • Login
  • US Flag 
Gobble Gobble! 
02:08AM EST


 

Airport Tracker/Info


-or-


 

Live Flight TrackerFlight Track Log ✈ PDT4142 ✈ 26-Jul-2014 ✈ KPHL - KITH

Flight Track Log - Related Links

Times and Time Zones

All times are in EDT time to prevent confusion due to time zone crossing. See the PDT4142 flight status page for this flight to view local times or setup timezone preferences in your user account.

Time Position Orientation Groundspeed Altitude Reporting Facility
EDT Latitude Longitude Course Direction KTS MPH feet Rate Location/Type
01:48PM 39.9000 -75.2500 311° West 133 153 600  Level Philadelphia TRACON
01:49PM 39.9167 -75.2833 303° West 158 182 1,500 1,080 Climbing Philadelphia TRACON
01:50PM 39.9333 -75.3333 294° West 154 177 2,600 1,020 Climbing Philadelphia TRACON
01:51PM 39.9500 -75.3833 294° West 152 175 3,600 900 Climbing Philadelphia TRACON
01:51PM 39.9578 -75.4083 292° West 155 178 4,100 1,020 Climbing New York Center
01:52PM 40.0019 -75.4322 337° Northwest 161 185 5,300 960 Climbing New York Center
01:53PM 40.2324 -75.5735 311° West  Level FlightAware Approximate
01:53PM 40.0433 -75.4569 335° Northwest 161 185 6,200  Level New York Center
01:54PM 40.0869 -75.4861 333° Northwest 162 186 7,200 900 Climbing New York Center
01:55PM 40.1322 -75.5047 343° North 168 193 8,100 900 Climbing New York Center
01:56PM 40.1803 -75.5339 335° Northwest 174 200 9,100 1,020 Climbing New York Center
01:57PM 40.2239 -75.5639 332° Northwest 169 194 10,300 960 Climbing New York Center
01:58PM 40.2489 -75.6158 302° West 161 185 11,200 780 Climbing New York Center
01:59PM 40.2794 -75.6561 315° West 162 186 12,000 360 Climbing New York Center
02:00PM 40.3225 -75.6961 325° Northwest 186 214 12,000 -60 Level New York Center
02:02PM 40.3814 -75.7203 343° North 210 242 11,900  Descending New York Center
02:03PM 40.4372 -75.7594 332° Northwest 214 246 12,000  Climbing New York Center
02:04PM 40.4964 -75.7964 335° Northwest 221 254 12,000  Level New York Center
02:05PM 40.5586 -75.8219 343° North 222 255 12,000  Level New York Center
02:06PM 40.6183 -75.8550 337° Northwest 222 255 12,000  Level New York Center
02:07PM 40.6758 -75.8933 333° Northwest 222 255 12,000  Level New York Center
02:08PM 40.7289 -75.9289 333° Northwest 222 255 12,100  Climbing New York Center
02:09PM 40.7897 -75.9561 341° North 222 255 12,100  Level New York Center
02:10PM 40.8514 -75.9872 339° North 222 255 12,100  Level New York Center
02:11PM 40.9064 -76.0253 332° Northwest 221 254 12,100 -60 Level New York Center
02:12PM 40.9669 -76.0567 339° North 221 254 12,000 -60 Descending New York Center
02:13PM 41.0267 -76.0917 336° Northwest 222 255 12,000  Level New York Center
02:14PM 41.0856 -76.1258 336° Northwest 222 255 12,000  Level New York Center
02:15PM 41.1458 -76.1556 340° North 221 254 12,000  Level New York Center
02:16PM 41.1997 -76.1883 335° Northwest 221 254 12,000  Level New York Center
02:17PM 41.2617 -76.2061 348° North 222 255 12,000  Level New York Center
02:18PM 41.3289 -76.1914 North 233 268 12,000  Level New York Center
02:19PM 41.3958 -76.1939 358° North 232 267 12,000  Level New York Center
02:20PM 41.4633 -76.1911 North 232 267 12,000  Level New York Center
02:21PM 41.5308 -76.1803 North 232 267 12,000 -240 Level New York Center
02:22PM 41.5992 -76.1825 359° North 235 270 11,600 -780 Descending New York Center
02:23PM 41.6697 -76.2125 342° North 253 291 10,500 -1,020 Descending New York Center
02:24PM 41.7397 -76.2317 348° North 264 304 9,600 -1,020 Descending New York Center
02:25PM 41.8147 -76.2519 349° North 265 305 8,400 -1,140 Descending New York Center
02:26PM 41.8892 -76.2769 346° North 263 303 7,300 -1,080 Descending New York Center
02:27PM 41.9644 -76.2944 350° North 263 303 6,300 -660 Descending New York Center
02:28PM 42.0311 -76.3161 346° North 259 298 6,000 -600 Descending New York Center
02:30PM 42.1061 -76.3361 349° North 248 285 5,100 -960 Descending New York Center
02:31PM 42.1739 -76.3575 347° North 248 285 4,100 -540 Descending New York Center
02:32PM 42.2392 -76.3803 346° North 247 284 4,000 -60 Descending New York Center
02:33PM 42.3078 -76.4006 348° North 236 272 4,000 -60 Level New York Center
02:34PM 42.3706 -76.4194 347° North 233 268 3,900 -360 Descending New York Center
02:35PM 42.4250 -76.4142 North 202 232 3,300 -960 Descending New York Center
02:36PM 42.4683 -76.4197 355° North 162 186 2,000 -1,320 Descending New York Center